Terminal Aerodrome Forecast
Issued by NWS

Home | Current Version | Previous Version | Text Only | Print | Product List | Glossary On
Versions: 1 2 3 4 5 6 7 8 9 10 11 12 13
797
FTUS43 KMQT 310528
TAFIWD
TAF
KIWD 310528Z 3106/0106 17003KT P6SM SCT060
     FM311800 07005KT P6SM SCT060
     FM010200 15004KT P6SM SKC
      AMD LTD TO CLD VIS AND WIND=

USA.gov is the U.S. government's official web portal to all federal, state and local government web resources and services.